sensor_id;sensor_type;location;lat;lon;timestamp;temperature;humidity
72772;SHT30;60894;42.544;1.516;2023-04-03T00:00:47;5.63;58.44
72772;SHT30;60894;42.544;1.516;2023-04-03T00:03:14;5.57;57.68
72772;SHT30;60894;42.544;1.516;2023-04-03T00:05:41;5.70;57.46
72772;SHT30;60894;42.544;1.516;2023-04-03T00:08:08;5.62;57.02
72772;SHT30;60894;42.544;1.516;2023-04-03T00:10:36;5.62;57.54
72772;SHT30;60894;42.544;1.516;2023-04-03T00:13:03;5.59;57.36
72772;SHT30;60894;42.544;1.516;2023-04-03T00:15:33;5.69;55.41
72772;SHT30;60894;42.544;1.516;2023-04-03T00:18:00;5.67;55.82
72772;SHT30;60894;42.544;1.516;2023-04-03T00:20:27;5.70;56.10
72772;SHT30;60894;42.544;1.516;2023-04-03T00:22:54;5.76;54.46
72772;SHT30;60894;42.544;1.516;2023-04-03T00:25:21;5.89;54.36
72772;SHT30;60894;42.544;1.516;2023-04-03T00:27:48;5.97;54.17
72772;SHT30;60894;42.544;1.516;2023-04-03T00:30:18;5.96;52.72
72772;SHT30;60894;42.544;1.516;2023-04-03T00:32:47;6.03;52.69
72772;SHT30;60894;42.544;1.516;2023-04-03T00:35:14;6.04;52.63
72772;SHT30;60894;42.544;1.516;2023-04-03T00:37:42;6.07;51.62
72772;SHT30;60894;42.544;1.516;2023-04-03T00:40:10;6.08;51.80
72772;SHT30;60894;42.544;1.516;2023-04-03T00:42:38;6.07;51.56
72772;SHT30;60894;42.544;1.516;2023-04-03T00:45:27;6.10;51.67
72772;SHT30;60894;42.544;1.516;2023-04-03T00:47:57;5.93;51.88
72772;SHT30;60894;42.544;1.516;2023-04-03T00:50:26;5.94;52.14
72772;SHT30;60894;42.544;1.516;2023-04-03T00:52:54;5.97;52.15
72772;SHT30;60894;42.544;1.516;2023-04-03T00:55:22;5.93;52.00
72772;SHT30;60894;42.544;1.516;2023-04-03T00:57:49;6.03;51.03
72772;SHT30;60894;42.544;1.516;2023-04-03T01:00:19;6.04;51.40
72772;SHT30;60894;42.544;1.516;2023-04-03T01:02:47;6.06;50.54
72772;SHT30;60894;42.544;1.516;2023-04-03T01:05:17;6.17;50.26
72772;SHT30;60894;42.544;1.516;2023-04-03T01:07:46;6.00;50.62
72772;SHT30;60894;42.544;1.516;2023-04-03T01:10:15;5.98;50.71
72772;SHT30;60894;42.544;1.516;2023-04-03T01:12:47;5.93;50.62
72772;SHT30;60894;42.544;1.516;2023-04-03T01:15:17;6.00;50.52
72772;SHT30;60894;42.544;1.516;2023-04-03T01:17:46;6.10;50.29
72772;SHT30;60894;42.544;1.516;2023-04-03T01:20:50;6.07;50.18
72772;SHT30;60894;42.544;1.516;2023-04-03T01:23:32;6.04;50.14
72772;SHT30;60894;42.544;1.516;2023-04-03T01:26:04;6.07;50.25
72772;SHT30;60894;42.544;1.516;2023-04-03T01:28:33;6.10;50.22
72772;SHT30;60894;42.544;1.516;2023-04-03T01:31:08;6.14;50.06
72772;SHT30;60894;42.544;1.516;2023-04-03T01:33:38;6.11;50.11
72772;SHT30;60894;42.544;1.516;2023-04-03T01:36:06;6.17;50.19
72772;SHT30;60894;42.544;1.516;2023-04-03T01:38:33;6.01;51.03
72772;SHT30;60894;42.544;1.516;2023-04-03T01:41:00;5.91;51.50
72772;SHT30;60894;42.544;1.516;2023-04-03T01:43:27;5.93;51.68
72772;SHT30;60894;42.544;1.516;2023-04-03T01:45:54;5.97;51.07
72772;SHT30;60894;42.544;1.516;2023-04-03T01:48:21;5.93;50.99
72772;SHT30;60894;42.544;1.516;2023-04-03T01:50:49;6.03;51.04
72772;SHT30;60894;42.544;1.516;2023-04-03T01:53:16;5.94;51.23
72772;SHT30;60894;42.544;1.516;2023-04-03T01:55:43;5.96;51.46
72772;SHT30;60894;42.544;1.516;2023-04-03T01:58:10;5.94;51.47
72772;SHT30;60894;42.544;1.516;2023-04-03T02:00:37;5.97;51.34
72772;SHT30;60894;42.544;1.516;2023-04-03T02:03:04;6.01;51.28
72772;SHT30;60894;42.544;1.516;2023-04-03T02:05:32;5.97;51.12
72772;SHT30;60894;42.544;1.516;2023-04-03T02:08:00;5.96;52.42
72772;SHT30;60894;42.544;1.516;2023-04-03T02:10:27;6.07;51.13
72772;SHT30;60894;42.544;1.516;2023-04-03T02:12:54;5.96;51.65
72772;SHT30;60894;42.544;1.516;2023-04-03T02:15:21;5.91;52.45
72772;SHT30;60894;42.544;1.516;2023-04-03T02:17:48;5.96;52.13
72772;SHT30;60894;42.544;1.516;2023-04-03T02:20:15;5.93;51.54
72772;SHT30;60894;42.544;1.516;2023-04-03T02:22:43;5.85;51.00
72772;SHT30;60894;42.544;1.516;2023-04-03T02:25:12;5.97;50.80
72772;SHT30;60894;42.544;1.516;2023-04-03T02:27:39;6.00;51.20
72772;SHT30;60894;42.544;1.516;2023-04-03T02:30:06;6.00;50.85
72772;SHT30;60894;42.544;1.516;2023-04-03T02:32:36;5.83;51.08
72772;SHT30;60894;42.544;1.516;2023-04-03T02:35:03;5.83;50.41
72772;SHT30;60894;42.544;1.516;2023-04-03T02:37:30;5.81;51.12
72772;SHT30;60894;42.544;1.516;2023-04-03T02:39:57;5.78;51.03
72772;SHT30;60894;42.544;1.516;2023-04-03T02:42:25;5.91;50.47
72772;SHT30;60894;42.544;1.516;2023-04-03T02:44:52;5.81;50.90
72772;SHT30;60894;42.544;1.516;2023-04-03T02:47:19;5.80;51.38
72772;SHT30;60894;42.544;1.516;2023-04-03T02:49:46;5.74;50.98
72772;SHT30;60894;42.544;1.516;2023-04-03T02:52:13;5.86;51.14
72772;SHT30;60894;42.544;1.516;2023-04-03T02:54:40;5.90;51.02
72772;SHT30;60894;42.544;1.516;2023-04-03T02:57:07;5.80;52.05
72772;SHT30;60894;42.544;1.516;2023-04-03T02:59:36;5.89;51.94
72772;SHT30;60894;42.544;1.516;2023-04-03T03:02:06;5.85;51.90
72772;SHT30;60894;42.544;1.516;2023-04-03T03:04:33;5.89;51.63
72772;SHT30;60894;42.544;1.516;2023-04-03T03:07:00;5.86;51.42
72772;SHT30;60894;42.544;1.516;2023-04-03T03:09:27;5.93;51.25
72772;SHT30;60894;42.544;1.516;2023-04-03T03:11:55;5.86;51.86
72772;SHT30;60894;42.544;1.516;2023-04-03T03:14:21;5.78;51.67
72772;SHT30;60894;42.544;1.516;2023-04-03T03:16:51;5.86;51.53
72772;SHT30;60894;42.544;1.516;2023-04-03T03:19:18;5.85;51.54
72772;SHT30;60894;42.544;1.516;2023-04-03T03:21:45;5.85;51.21
72772;SHT30;60894;42.544;1.516;2023-04-03T03:24:12;5.87;50.99
72772;SHT30;60894;42.544;1.516;2023-04-03T03:26:38;5.81;50.78
72772;SHT30;60894;42.544;1.516;2023-04-03T03:29:05;5.90;50.80
72772;SHT30;60894;42.544;1.516;2023-04-03T03:31:32;5.78;51.11
72772;SHT30;60894;42.544;1.516;2023-04-03T03:34:01;5.81;51.21
72772;SHT30;60894;42.544;1.516;2023-04-03T03:36:28;5.86;51.47
72772;SHT30;60894;42.544;1.516;2023-04-03T03:38:54;5.89;50.89
72772;SHT30;60894;42.544;1.516;2023-04-03T03:41:21;5.87;50.61
72772;SHT30;60894;42.544;1.516;2023-04-03T03:43:48;5.86;50.62
72772;SHT30;60894;42.544;1.516;2023-04-03T03:46:15;5.78;50.24
72772;SHT30;60894;42.544;1.516;2023-04-03T03:48:42;5.78;50.71
72772;SHT30;60894;42.544;1.516;2023-04-03T03:51:10;5.80;50.30
72772;SHT30;60894;42.544;1.516;2023-04-03T03:53:37;5.86;49.77
72772;SHT30;60894;42.544;1.516;2023-04-03T03:56:04;5.83;50.06
72772;SHT30;60894;42.544;1.516;2023-04-03T03:58:32;5.97;49.55
72772;SHT30;60894;42.544;1.516;2023-04-03T04:01:01;5.97;49.39
72772;SHT30;60894;42.544;1.516;2023-04-03T04:03:28;5.83;49.61
72772;SHT30;60894;42.544;1.516;2023-04-03T04:05:55;5.85;49.60
72772;SHT30;60894;42.544;1.516;2023-04-03T04:08:24;5.76;50.59
72772;SHT30;60894;42.544;1.516;2023-04-03T04:10:51;5.83;50.01
72772;SHT30;60894;42.544;1.516;2023-04-03T04:13:18;5.78;50.09
72772;SHT30;60894;42.544;1.516;2023-04-03T04:15:44;5.78;49.95
72772;SHT30;60894;42.544;1.516;2023-04-03T04:18:11;5.81;50.04
72772;SHT30;60894;42.544;1.516;2023-04-03T04:20:38;5.86;49.94
72772;SHT30;60894;42.544;1.516;2023-04-03T04:23:05;5.98;49.88
72772;SHT30;60894;42.544;1.516;2023-04-03T04:25:33;5.90;50.01
72772;SHT30;60894;42.544;1.516;2023-04-03T04:28:00;5.85;50.25
72772;SHT30;60894;42.544;1.516;2023-04-03T04:30:27;5.90;50.27
72772;SHT30;60894;42.544;1.516;2023-04-03T04:32:54;5.87;50.08
72772;SHT30;60894;42.544;1.516;2023-04-03T04:35:21;5.77;50.56
72772;SHT30;60894;42.544;1.516;2023-04-03T04:37:48;5.78;50.60
72772;SHT30;60894;42.544;1.516;2023-04-03T04:40:15;5.77;50.74
72772;SHT30;60894;42.544;1.516;2023-04-03T04:42:44;5.85;50.48
72772;SHT30;60894;42.544;1.516;2023-04-03T04:45:10;5.77;50.37
72772;SHT30;60894;42.544;1.516;2023-04-03T04:47:37;5.76;50.54
72772;SHT30;60894;42.544;1.516;2023-04-03T04:50:05;5.73;51.88
72772;SHT30;60894;42.544;1.516;2023-04-03T04:52:32;5.78;51.05
72772;SHT30;60894;42.544;1.516;2023-04-03T04:54:59;5.73;51.24
72772;SHT30;60894;42.544;1.516;2023-04-03T04:57:26;5.74;50.82
72772;SHT30;60894;42.544;1.516;2023-04-03T04:59:54;5.73;50.93
72772;SHT30;60894;42.544;1.516;2023-04-03T05:02:21;5.67;50.83
72772;SHT30;60894;42.544;1.516;2023-04-03T05:04:48;5.71;50.57
72772;SHT30;60894;42.544;1.516;2023-04-03T05:07:17;5.70;50.61
72772;SHT30;60894;42.544;1.516;2023-04-03T05:09:44;5.80;50.35
72772;SHT30;60894;42.544;1.516;2023-04-03T05:12:11;5.76;50.61
72772;SHT30;60894;42.544;1.516;2023-04-03T05:14:38;5.77;50.37
72772;SHT30;60894;42.544;1.516;2023-04-03T05:17:06;5.65;50.19
72772;SHT30;60894;42.544;1.516;2023-04-03T05:19:33;5.65;49.78
72772;SHT30;60894;42.544;1.516;2023-04-03T05:22:00;5.63;49.89
72772;SHT30;60894;42.544;1.516;2023-04-03T05:24:27;5.59;50.17
72772;SHT30;60894;42.544;1.516;2023-04-03T05:26:53;5.67;50.19
72772;SHT30;60894;42.544;1.516;2023-04-03T05:29:20;5.66;49.73
72772;SHT30;60894;42.544;1.516;2023-04-03T05:31:48;5.63;49.67
72772;SHT30;60894;42.544;1.516;2023-04-03T05:34:17;5.69;50.32
72772;SHT30;60894;42.544;1.516;2023-04-03T05:36:44;5.73;49.80
72772;SHT30;60894;42.544;1.516;2023-04-03T05:39:11;5.60;50.13
72772;SHT30;60894;42.544;1.516;2023-04-03T05:41:38;5.63;50.38
72772;SHT30;60894;42.544;1.516;2023-04-03T05:44:05;5.65;50.63
72772;SHT30;60894;42.544;1.516;2023-04-03T05:46:32;5.62;50.75
72772;SHT30;60894;42.544;1.516;2023-04-03T05:48:59;5.59;50.76
72772;SHT30;60894;42.544;1.516;2023-04-03T05:51:30;5.62;50.98
72772;SHT30;60894;42.544;1.516;2023-04-03T05:54:03;5.59;50.78
72772;SHT30;60894;42.544;1.516;2023-04-03T05:56:32;5.65;50.41
72772;SHT30;60894;42.544;1.516;2023-04-03T05:58:59;5.67;50.47
72772;SHT30;60894;42.544;1.516;2023-04-03T06:01:26;5.69;50.23
72772;SHT30;60894;42.544;1.516;2023-04-03T06:03:53;5.69;50.26
72772;SHT30;60894;42.544;1.516;2023-04-03T06:06:21;5.71;50.46
72772;SHT30;60894;42.544;1.516;2023-04-03T06:08:50;5.77;50.31
72772;SHT30;60894;42.544;1.516;2023-04-03T06:11:17;5.78;50.30
72772;SHT30;60894;42.544;1.516;2023-04-03T06:13:44;5.83;49.79
72772;SHT30;60894;42.544;1.516;2023-04-03T06:16:12;5.87;50.36
72772;SHT30;60894;42.544;1.516;2023-04-03T06:18:40;5.94;49.89
72772;SHT30;60894;42.544;1.516;2023-04-03T06:21:07;6.03;50.00
72772;SHT30;60894;42.544;1.516;2023-04-03T06:23:34;6.00;50.48
72772;SHT30;60894;42.544;1.516;2023-04-03T06:26:03;6.10;50.04
72772;SHT30;60894;42.544;1.516;2023-04-03T06:28:31;6.07;50.24
72772;SHT30;60894;42.544;1.516;2023-04-03T06:30:57;6.01;50.43
72772;SHT30;60894;42.544;1.516;2023-04-03T06:33:24;6.01;51.01
72772;SHT30;60894;42.544;1.516;2023-04-03T06:35:56;6.06;50.65
72772;SHT30;60894;42.544;1.516;2023-04-03T06:38:23;6.07;50.22
72772;SHT30;60894;42.544;1.516;2023-04-03T06:40:50;6.11;50.07
72772;SHT30;60894;42.544;1.516;2023-04-03T06:43:20;6.04;50.04
72772;SHT30;60894;42.544;1.516;2023-04-03T06:45:47;6.14;50.16
72772;SHT30;60894;42.544;1.516;2023-04-03T06:48:14;6.10;50.11
72772;SHT30;60894;42.544;1.516;2023-04-03T06:50:41;6.20;49.97
72772;SHT30;60894;42.544;1.516;2023-04-03T06:53:08;6.08;50.37
72772;SHT30;60894;42.544;1.516;2023-04-03T06:55:35;6.13;50.17
72772;SHT30;60894;42.544;1.516;2023-04-03T06:58:02;6.14;49.72
72772;SHT30;60894;42.544;1.516;2023-04-03T07:00:31;6.10;50.15
72772;SHT30;60894;42.544;1.516;2023-04-03T07:02:58;6.11;49.87
72772;SHT30;60894;42.544;1.516;2023-04-03T07:05:25;6.20;49.94
72772;SHT30;60894;42.544;1.516;2023-04-03T07:07:53;6.29;49.86
72772;SHT30;60894;42.544;1.516;2023-04-03T07:10:20;6.31;49.35
72772;SHT30;60894;42.544;1.516;2023-04-03T07:12:47;6.25;49.32
72772;SHT30;60894;42.544;1.516;2023-04-03T07:15:14;6.32;49.64
72772;SHT30;60894;42.544;1.516;2023-04-03T07:17:42;6.35;49.38
72772;SHT30;60894;42.544;1.516;2023-04-03T07:20:09;6.35;49.71
72772;SHT30;60894;42.544;1.516;2023-04-03T07:22:37;6.32;49.85
72772;SHT30;60894;42.544;1.516;2023-04-03T07:25:04;6.29;49.94
72772;SHT30;60894;42.544;1.516;2023-04-03T07:27:33;6.31;49.97
72772;SHT30;60894;42.544;1.516;2023-04-03T07:30:00;6.25;49.85
72772;SHT30;60894;42.544;1.516;2023-04-03T07:32:26;6.34;49.42
72772;SHT30;60894;42.544;1.516;2023-04-03T07:34:55;6.39;49.04
72772;SHT30;60894;42.544;1.516;2023-04-03T07:37:22;6.41;49.39
72772;SHT30;60894;42.544;1.516;2023-04-03T07:39:49;6.48;48.91
72772;SHT30;60894;42.544;1.516;2023-04-03T07:42:16;6.46;48.53
72772;SHT30;60894;42.544;1.516;2023-04-03T07:44:43;6.44;48.76
72772;SHT30;60894;42.544;1.516;2023-04-03T07:47:10;6.53;48.62
72772;SHT30;60894;42.544;1.516;2023-04-03T07:49:38;6.28;48.56
72772;SHT30;60894;42.544;1.516;2023-04-03T07:52:07;6.31;48.92
72772;SHT30;60894;42.544;1.516;2023-04-03T07:54:35;6.28;48.47
72772;SHT30;60894;42.544;1.516;2023-04-03T07:57:02;6.44;48.45
72772;SHT30;60894;42.544;1.516;2023-04-03T07:59:29;6.37;47.83
72772;SHT30;60894;42.544;1.516;2023-04-03T08:01:56;6.39;47.95
72772;SHT30;60894;42.544;1.516;2023-04-03T08:04:23;6.34;47.70
72772;SHT30;60894;42.544;1.516;2023-04-03T08:06:50;6.38;47.73
72772;SHT30;60894;42.544;1.516;2023-04-03T08:09:18;6.42;47.73
72772;SHT30;60894;42.544;1.516;2023-04-03T08:11:45;6.41;48.84
72772;SHT30;60894;42.544;1.516;2023-04-03T08:14:13;6.37;47.48
72772;SHT30;60894;42.544;1.516;2023-04-03T08:16:44;6.45;47.65
72772;SHT30;60894;42.544;1.516;2023-04-03T08:19:11;6.53;47.28
72772;SHT30;60894;42.544;1.516;2023-04-03T08:21:39;6.53;47.07
72772;SHT30;60894;42.544;1.516;2023-04-03T08:24:07;6.53;47.21
72772;SHT30;60894;42.544;1.516;2023-04-03T08:26:36;6.58;47.41
72772;SHT30;60894;42.544;1.516;2023-04-03T08:29:03;6.66;47.32
72772;SHT30;60894;42.544;1.516;2023-04-03T08:31:30;6.49;46.34
72772;SHT30;60894;42.544;1.516;2023-04-03T08:33:57;6.62;46.79
72772;SHT30;60894;42.544;1.516;2023-04-03T08:36:26;6.69;46.66
72772;SHT30;60894;42.544;1.516;2023-04-03T08:38:54;6.73;46.49
72772;SHT30;60894;42.544;1.516;2023-04-03T08:41:29;6.68;46.27
72772;SHT30;60894;42.544;1.516;2023-04-03T08:44:03;6.64;46.78
72772;SHT30;60894;42.544;1.516;2023-04-03T08:46:41;6.61;46.99
72772;SHT30;60894;42.544;1.516;2023-04-03T08:49:15;6.73;46.80
72772;SHT30;60894;42.544;1.516;2023-04-03T08:51:46;6.68;47.00
72772;SHT30;60894;42.544;1.516;2023-04-03T08:54:24;6.76;46.81
72772;SHT30;60894;42.544;1.516;2023-04-03T08:56:53;6.79;46.74
72772;SHT30;60894;42.544;1.516;2023-04-03T08:59:26;6.75;46.74
72772;SHT30;60894;42.544;1.516;2023-04-03T09:01:54;6.76;46.64
72772;SHT30;60894;42.544;1.516;2023-04-03T09:04:22;6.79;46.40
72772;SHT30;60894;42.544;1.516;2023-04-03T09:06:52;6.89;46.23
72772;SHT30;60894;42.544;1.516;2023-04-03T09:09:30;7.06;46.02
72772;SHT30;60894;42.544;1.516;2023-04-03T09:12:05;7.13;45.35
72772;SHT30;60894;42.544;1.516;2023-04-03T09:14:39;7.20;45.44
72772;SHT30;60894;42.544;1.516;2023-04-03T09:17:13;7.10;45.30
72772;SHT30;60894;42.544;1.516;2023-04-03T09:19:46;7.16;45.38
72772;SHT30;60894;42.544;1.516;2023-04-03T09:22:20;7.20;45.12
72772;SHT30;60894;42.544;1.516;2023-04-03T09:24:50;7.24;45.08
72772;SHT30;60894;42.544;1.516;2023-04-03T09:27:19;7.26;44.97
72772;SHT30;60894;42.544;1.516;2023-04-03T09:29:49;7.27;45.17
72772;SHT30;60894;42.544;1.516;2023-04-03T09:32:21;7.43;45.00
72772;SHT30;60894;42.544;1.516;2023-04-03T09:34:51;7.68;44.25
72772;SHT30;60894;42.544;1.516;2023-04-03T09:37:39;7.93;43.83
72772;SHT30;60894;42.544;1.516;2023-04-03T09:40:29;7.91;43.45
72772;SHT30;60894;42.544;1.516;2023-04-03T09:42:58;7.77;43.88
72772;SHT30;60894;42.544;1.516;2023-04-03T09:45:28;8.03;43.52
72772;SHT30;60894;42.544;1.516;2023-04-03T09:48:07;8.26;43.37
72772;SHT30;60894;42.544;1.516;2023-04-03T09:50:35;8.36;42.61
72772;SHT30;60894;42.544;1.516;2023-04-03T09:53:06;8.53;42.66
72772;SHT30;60894;42.544;1.516;2023-04-03T09:55:43;8.50;42.60
72772;SHT30;60894;42.544;1.516;2023-04-03T09:58:25;8.70;42.15
72772;SHT30;60894;42.544;1.516;2023-04-03T10:00:59;8.56;42.16
72772;SHT30;60894;42.544;1.516;2023-04-03T10:03:29;8.75;41.68
72772;SHT30;60894;42.544;1.516;2023-04-03T10:05:57;8.87;41.59
72772;SHT30;60894;42.544;1.516;2023-04-03T10:08:28;9.18;40.53
72772;SHT30;60894;42.544;1.516;2023-04-03T10:11:13;9.26;40.53
72772;SHT30;60894;42.544;1.516;2023-04-03T10:13:52;9.29;40.55
72772;SHT30;60894;42.544;1.516;2023-04-03T10:16:24;9.49;40.23
72772;SHT30;60894;42.544;1.516;2023-04-03T10:19:10;9.46;39.78
72772;SHT30;60894;42.544;1.516;2023-04-03T10:21:42;9.67;39.68
72772;SHT30;60894;42.544;1.516;2023-04-03T10:24:14;9.79;39.36
72772;SHT30;60894;42.544;1.516;2023-04-03T10:26:52;9.97;38.95
72772;SHT30;60894;42.544;1.516;2023-04-03T10:29:36;9.76;39.74
72772;SHT30;60894;42.544;1.516;2023-04-03T10:32:25;9.84;39.48
72772;SHT30;60894;42.544;1.516;2023-04-03T10:35:00;10.07;38.22
72772;SHT30;60894;42.544;1.516;2023-04-03T10:37:35;9.97;38.88
72772;SHT30;60894;42.544;1.516;2023-04-03T10:40:19;10.42;38.22
72772;SHT30;60894;42.544;1.516;2023-04-03T10:42:51;10.40;38.03
72772;SHT30;60894;42.544;1.516;2023-04-03T10:45:24;10.77;37.46
72772;SHT30;60894;42.544;1.516;2023-04-03T10:48:01;10.68;36.95
72772;SHT30;60894;42.544;1.516;2023-04-03T10:50:38;10.54;37.09
72772;SHT30;60894;42.544;1.516;2023-04-03T10:53:15;10.66;36.82
72772;SHT30;60894;42.544;1.516;2023-04-03T10:55:49;11.10;37.11
72772;SHT30;60894;42.544;1.516;2023-04-03T10:58:21;11.33;35.07
72772;SHT30;60894;42.544;1.516;2023-04-03T11:00:50;11.77;34.78
72772;SHT30;60894;42.544;1.516;2023-04-03T11:03:29;12.18;34.46
72772;SHT30;60894;42.544;1.516;2023-04-03T11:05:59;12.30;33.69
72772;SHT30;60894;42.544;1.516;2023-04-03T11:08:33;12.66;33.32
72772;SHT30;60894;42.544;1.516;2023-04-03T11:11:04;12.61;33.04
72772;SHT30;60894;42.544;1.516;2023-04-03T11:13:34;12.81;33.31
72772;SHT30;60894;42.544;1.516;2023-04-03T11:16:04;12.97;31.89
72772;SHT30;60894;42.544;1.516;2023-04-03T11:18:37;12.90;32.27
72772;SHT30;60894;42.544;1.516;2023-04-03T11:21:07;12.60;32.83
72772;SHT30;60894;42.544;1.516;2023-04-03T11:23:36;12.28;33.12
72772;SHT30;60894;42.544;1.516;2023-04-03T11:26:10;12.09;33.83
72772;SHT30;60894;42.544;1.516;2023-04-03T11:28:37;11.78;34.72
72772;SHT30;60894;42.544;1.516;2023-04-03T11:34:05;11.51;35.09
72772;SHT30;60894;42.544;1.516;2023-04-03T11:36:39;11.86;34.84
72772;SHT30;60894;42.544;1.516;2023-04-03T11:39:18;12.12;33.70
72772;SHT30;60894;42.544;1.516;2023-04-03T11:41:47;12.40;34.01
72772;SHT30;60894;42.544;1.516;2023-04-03T11:44:32;12.52;33.45
72772;SHT30;60894;42.544;1.516;2023-04-03T11:47:00;11.94;34.33
72772;SHT30;60894;42.544;1.516;2023-04-03T11:49:58;12.26;34.35
72772;SHT30;60894;42.544;1.516;2023-04-03T11:52:55;12.18;33.88
72772;SHT30;60894;42.544;1.516;2023-04-03T11:55:52;12.49;33.67
72772;SHT30;60894;42.544;1.516;2023-04-03T11:58:22;12.45;34.48
72772;SHT30;60894;42.544;1.516;2023-04-03T12:03:57;12.94;33.20
72772;SHT30;60894;42.544;1.516;2023-04-03T12:12:59;13.96;32.79
72772;SHT30;60894;42.544;1.516;2023-04-03T12:15:48;13.66;32.91
72772;SHT30;60894;42.544;1.516;2023-04-03T12:18:57;13.70;34.30
72772;SHT30;60894;42.544;1.516;2023-04-03T12:24:26;14.28;30.41
72772;SHT30;60894;42.544;1.516;2023-04-03T12:27:03;14.57;32.93
72772;SHT30;60894;42.544;1.516;2023-04-03T12:29:37;15.15;30.88
72772;SHT30;60894;42.544;1.516;2023-04-03T12:32:13;15.42;30.19
72772;SHT30;60894;42.544;1.516;2023-04-03T12:34:53;15.98;29.98
72772;SHT30;60894;42.544;1.516;2023-04-03T12:37:38;15.53;28.56
72772;SHT30;60894;42.544;1.516;2023-04-03T12:40:21;14.68;28.62
72772;SHT30;60894;42.544;1.516;2023-04-03T12:43:09;14.40;30.46
72772;SHT30;60894;42.544;1.516;2023-04-03T12:45:46;14.79;30.66
72772;SHT30;60894;42.544;1.516;2023-04-03T12:48:15;14.84;29.19
72772;SHT30;60894;42.544;1.516;2023-04-03T12:50:45;14.60;31.55
72772;SHT30;60894;42.544;1.516;2023-04-03T12:53:16;14.40;30.25
72772;SHT30;60894;42.544;1.516;2023-04-03T12:55:44;15.19;30.44
72772;SHT30;60894;42.544;1.516;2023-04-03T12:58:16;15.56;28.89
72772;SHT30;60894;42.544;1.516;2023-04-03T13:00:45;15.87;27.95
72772;SHT30;60894;42.544;1.516;2023-04-03T13:03:22;15.78;27.69
72772;SHT30;60894;42.544;1.516;2023-04-03T13:05:52;15.09;30.45
72772;SHT30;60894;42.544;1.516;2023-04-03T13:08:20;14.54;29.43
72772;SHT30;60894;42.544;1.516;2023-04-03T13:10:52;13.32;31.21
72772;SHT30;60894;42.544;1.516;2023-04-03T13:13:21;13.27;32.43
72772;SHT30;60894;42.544;1.516;2023-04-03T13:15:50;13.85;32.40
72772;SHT30;60894;42.544;1.516;2023-04-03T13:18:26;14.26;30.94
72772;SHT30;60894;42.544;1.516;2023-04-03T13:20:58;14.20;30.31
72772;SHT30;60894;42.544;1.516;2023-04-03T13:23:26;14.09;30.99
72772;SHT30;60894;42.544;1.516;2023-04-03T13:25:53;15.00;30.22
72772;SHT30;60894;42.544;1.516;2023-04-03T13:28:23;14.89;30.36
72772;SHT30;60894;42.544;1.516;2023-04-03T13:31:01;14.09;31.05
72772;SHT30;60894;42.544;1.516;2023-04-03T13:33:31;14.13;29.64
72772;SHT30;60894;42.544;1.516;2023-04-03T13:36:02;13.70;30.70
72772;SHT30;60894;42.544;1.516;2023-04-03T13:38:31;13.63;30.31
72772;SHT30;60894;42.544;1.516;2023-04-03T13:41:00;13.55;30.18
72772;SHT30;60894;42.544;1.516;2023-04-03T13:43:29;13.87;29.84
72772;SHT30;60894;42.544;1.516;2023-04-03T13:46:05;13.97;30.30
72772;SHT30;60894;42.544;1.516;2023-04-03T13:48:48;14.23;29.88
72772;SHT30;60894;42.544;1.516;2023-04-03T13:51:19;14.82;29.52
72772;SHT30;60894;42.544;1.516;2023-04-03T13:53:48;15.39;27.76
72772;SHT30;60894;42.544;1.516;2023-04-03T13:56:19;14.88;27.20
72772;SHT30;60894;42.544;1.516;2023-04-03T13:58:56;14.79;27.54
72772;SHT30;60894;42.544;1.516;2023-04-03T14:01:32;13.75;29.17
72772;SHT30;60894;42.544;1.516;2023-04-03T14:04:00;13.45;30.42
72772;SHT30;60894;42.544;1.516;2023-04-03T14:06:28;13.89;29.60
72772;SHT30;60894;42.544;1.516;2023-04-03T14:08:55;14.42;29.38
72772;SHT30;60894;42.544;1.516;2023-04-03T14:11:24;14.67;29.21
72772;SHT30;60894;42.544;1.516;2023-04-03T14:13:52;14.79;27.90
72772;SHT30;60894;42.544;1.516;2023-04-03T14:16:22;14.37;28.36
72772;SHT30;60894;42.544;1.516;2023-04-03T14:18:51;14.99;28.04
72772;SHT30;60894;42.544;1.516;2023-04-03T14:21:19;15.47;28.26
72772;SHT30;60894;42.544;1.516;2023-04-03T14:23:47;15.30;27.20
72772;SHT30;60894;42.544;1.516;2023-04-03T14:26:16;15.25;26.82
72772;SHT30;60894;42.544;1.516;2023-04-03T14:28:44;15.43;27.24
72772;SHT30;60894;42.544;1.516;2023-04-03T14:31:12;14.88;27.38
72772;SHT30;60894;42.544;1.516;2023-04-03T14:33:40;14.77;28.09
72772;SHT30;60894;42.544;1.516;2023-04-03T14:36:13;15.27;27.05
72772;SHT30;60894;42.544;1.516;2023-04-03T14:38:41;14.89;27.35
72772;SHT30;60894;42.544;1.516;2023-04-03T14:41:10;14.41;28.01
72772;SHT30;60894;42.544;1.516;2023-04-03T14:43:38;14.09;27.90
72772;SHT30;60894;42.544;1.516;2023-04-03T14:46:08;14.51;28.25
72772;SHT30;60894;42.544;1.516;2023-04-03T14:48:38;15.00;27.37
72772;SHT30;60894;42.544;1.516;2023-04-03T14:51:05;14.95;27.15
72772;SHT30;60894;42.544;1.516;2023-04-03T14:53:33;14.93;26.90
72772;SHT30;60894;42.544;1.516;2023-04-03T14:56:00;14.20;27.73
72772;SHT30;60894;42.544;1.516;2023-04-03T14:58:27;14.95;27.54
72772;SHT30;60894;42.544;1.516;2023-04-03T15:00:54;15.29;26.60
72772;SHT30;60894;42.544;1.516;2023-04-03T15:03:21;15.50;25.90
72772;SHT30;60894;42.544;1.516;2023-04-03T15:05:49;15.33;25.64
72772;SHT30;60894;42.544;1.516;2023-04-03T15:08:19;14.75;26.26
72772;SHT30;60894;42.544;1.516;2023-04-03T15:10:48;15.46;26.82
72772;SHT30;60894;42.544;1.516;2023-04-03T15:13:18;16.14;26.15
72772;SHT30;60894;42.544;1.516;2023-04-03T15:15:46;16.42;24.93
72772;SHT30;60894;42.544;1.516;2023-04-03T15:18:16;16.72;24.33
72772;SHT30;60894;42.544;1.516;2023-04-03T15:20:44;17.06;24.37
72772;SHT30;60894;42.544;1.516;2023-04-03T15:23:15;17.14;24.32
72772;SHT30;60894;42.544;1.516;2023-04-03T15:25:43;17.20;23.97
72772;SHT30;60894;42.544;1.516;2023-04-03T15:28:18;17.28;24.56
72772;SHT30;60894;42.544;1.516;2023-04-03T15:30:46;17.06;24.34
72772;SHT30;60894;42.544;1.516;2023-04-03T15:33:13;16.48;24.87
72772;SHT30;60894;42.544;1.516;2023-04-03T15:35:41;15.87;25.39
72772;SHT30;60894;42.544;1.516;2023-04-03T15:38:08;16.14;25.31
72772;SHT30;60894;42.544;1.516;2023-04-03T15:40:35;16.15;24.22
72772;SHT30;60894;42.544;1.516;2023-04-03T15:43:02;16.28;26.09
72772;SHT30;60894;42.544;1.516;2023-04-03T15:45:31;16.39;25.74
72772;SHT30;60894;42.544;1.516;2023-04-03T15:47:58;16.38;25.67
72772;SHT30;60894;42.544;1.516;2023-04-03T15:50:25;16.65;25.38
72772;SHT30;60894;42.544;1.516;2023-04-03T15:52:52;16.48;25.02
72772;SHT30;60894;42.544;1.516;2023-04-03T15:55:21;16.62;25.03
72772;SHT30;60894;42.544;1.516;2023-04-03T15:57:48;16.56;25.54
72772;SHT30;60894;42.544;1.516;2023-04-03T16:00:15;16.59;24.61
72772;SHT30;60894;42.544;1.516;2023-04-03T16:02:45;16.60;25.50
72772;SHT30;60894;42.544;1.516;2023-04-03T16:05:12;16.53;25.60
72772;SHT30;60894;42.544;1.516;2023-04-03T16:07:41;16.87;25.41
72772;SHT30;60894;42.544;1.516;2023-04-03T16:10:10;16.73;25.95
72772;SHT30;60894;42.544;1.516;2023-04-03T16:12:37;16.69;26.21